Airfield :
LOGIN :

Register | Disclaimer

   EN    FR    IT 

 










Legend :    VFR   Marginal VFR   IFR   Intensive IFR   Very Intensive IFR
Visi :
Ceiling :
>= 8 km
>= 3000ft
5 to 8 km
1000 to 3000 ft
1500m to 5 km
500 to 1000 ft
800 to 1500m
200 to 500 ft
< 800m
< 200 ft
Symbols :   Thunderstorms  Fog  Heavy snow  Heavy precipitations  Wind > 20 kt
SIGMETs :     Misc.  Thunderstorms  Icing  Turbulence  Mountain Waves  Volcanic Ashes






- Airport Elevation : 1213 ft
- IATA code : SCQ


LEST - Santiago de Compostela

CURRENT METAR :
  • 152030Z 29003KT 250V320 9999 -SHRA FEW003 BKN011 SCT020TCU 04/04 Q1013 TEMPO 3000 SHRA

EXPIRED METARs :
  • 152013Z VRB02KT 6000 -SHRA FEW003 BKN011 SCT020TCU 04/04 Q1013 TEMPO 3000 SHRA
  • 152000Z VRB01KT 9999 FEW003 SCT020 FEW025TCU 04/04 Q1012 TEMPO 3000 SHRA
  • 151930Z 03005KT 350V080 6000 -SHRA FEW003 BKN020 SCT030TCU 05/04 Q1013 RESHRA TEMPO 3000 SHRA
  • 151900Z 35007KT 300V030 5000 SHRA FEW003 BKN016 SCT025TCU 05/04 Q1012 NOSIG
  • 151836Z 01011G22KT 340V050 5000 SHRA FEW003 BKN017 SCT025TCU 05/04 Q1012 NOSIG
  • 151800Z 01006KT 340V040 8000 -SHRA FEW003 SCT014TCU BKN036 05/04 Q1012 TEMPO SHRA

TAF TAF LEST
Valid from the 15 at 18:00 until the 16 at 18:00 UTC


151700Z 1518/1618 36010KT 9999 SCT020 BKN030 TX10/1613Z TN03/1606Z
PROB40
TEMPO 1518/1521 36015G25KT
TEMPO 1518/1524 SHRA BKN010 SCT025TCU
TEMPO 1518/1603 3000 -RA BR BKN014
PROB30
TEMPO 1518/1520 3000 TSRA BKN020CB
BECMG 1606/1608 24007KT



MET'MAP, your aeronautical weather chart ! - Copyright ORBIFLY December 2007 - Disclaimer

ORBIFLY MET'MAP TEAM :

Programming & Development : Alexandra Zaïnal
Concept & Development : Baudouin d'Aumeries
Co-Development & Prog : Marc-Olivier Méhu
Technical & hardware support : Manuel Goepfert

Contact : metmap@orbifly.com




SOURCES & CREDITS :

   NOAA